COUO2: Red River nr Courtney, OK

                                SHEF ID:       COUO2     Red River nr Courtney, OK
STATION TYPE:

PRECIP ELEVATION STAGE RIV-FLOW BAT-LOAD
in ft ft cfs volt
Ccp-Rev Ccp-Rev Ccp-Rev Ccp-Rev Ccp-Rev
(America/Chicago)
05/03 00:00 ---- ---- 12.20 1632 12.73
05/03 01:00 ---- ---- 12.20 1632 12.73
05/03 02:00 ---- ---- 12.19 1624 12.65
05/03 03:00 ---- ---- 12.19 1624 12.65
05/03 04:00 ---- ---- 12.16 1600 12.65
05/03 05:00 ---- ---- 12.15 1593 12.65
05/03 06:00 ---- ---- 12.13 1577 12.57
05/03 07:00 ---- ---- 12.12 1569 12.57
05/03 08:00 ---- ---- 12.11 1561 13.37
05/03 09:00 ---- ---- 12.09 1546 13.44
05/03 10:00 ---- ---- 12.08 1538 13.44
05/03 11:00 ---- ---- 12.04 1507 13.53
05/03 12:00 ---- ---- 12.06 1522 13.53
05/03 13:00 ---- ---- 12.05 1515 13.53
05/03 14:00 ---- ---- 12.00 1476 13.37
05/03 15:00 ---- ---- 12.02 1492 13.44
05/03 16:00 ---- ---- 12.02 1492 13.37
05/03 17:00 ---- ---- 12.01 1484 13.05
05/03 18:00 ---- ---- 11.99 1469 12.97
05/03 19:00 ---- ---- 11.98 1461 12.89
05/03 20:00 ---- ---- 11.97 1454 12.89
05/03 21:00 ---- ---- 11.97 1454 12.81
05/03 22:00 ---- ---- 11.97 1454 12.81
05/03 23:00 ---- ---- 11.97 1454 12.73
Data processed at Mon 04May2026 04:41 GMT

NOTICE: If you are parsing this page

Please convert to using our Data API. Starting early 2026 we will be migrating to: https://water.usace.army.mil with modern pages rendered in JavaScript. When this migration completes you will no longer be able to scrape this page! CWMSDataAPI (CDA)

Timeseries IDs (TSIDs)

TSIDs used from left to right in the data table
COUT.Precip-Inc.Total.1Hour.1Hour.Ccp-Rev
COUT.Stage.Inst.1Hour.0.Ccp-Rev
COUT.Flow.Inst.1Hour.0.Ccp-Rev
COUT.Volt-Battery Load.Inst.1Hour.0.Ccp-Rev

                            

All information presented herein is the property of the government of the United States of America and may be revised or deleted at any time without prior notice. Dissemination of this information without the expressed written consent of the Public Affairs Office, Tulsa District U.S. Army Corps of Engineers is strictly prohibited. These data are gathered electronically and, as presented, have NOT undergone any form of quality control. These data are NOT guaranteed to be valid or correct.